sensor_id;sensor_type;location;lat;lon;timestamp;P1;durP1;ratioP1;P2;durP2;ratioP2
20150;SDS011;10236;49.638;6.830;2023-02-05T00:01:29;28.03;;;12.57;;
20150;SDS011;10236;49.638;6.830;2023-02-05T00:03:55;23.27;;;11.00;;
20150;SDS011;10236;49.638;6.830;2023-02-05T00:06:21;26.30;;;9.57;;
20150;SDS011;10236;49.638;6.830;2023-02-05T00:08:47;21.03;;;8.70;;
20150;SDS011;10236;49.638;6.830;2023-02-05T00:11:13;25.07;;;9.90;;
20150;SDS011;10236;49.638;6.830;2023-02-05T00:13:40;23.60;;;10.10;;
20150;SDS011;10236;49.638;6.830;2023-02-05T00:16:10;23.70;;;10.53;;
20150;SDS011;10236;49.638;6.830;2023-02-05T00:18:36;27.20;;;10.30;;
20150;SDS011;10236;49.638;6.830;2023-02-05T00:21:03;21.13;;;8.63;;
20150;SDS011;10236;49.638;6.830;2023-02-05T00:23:29;19.40;;;8.30;;
20150;SDS011;10236;49.638;6.830;2023-02-05T00:25:55;24.23;;;9.13;;
20150;SDS011;10236;49.638;6.830;2023-02-05T00:28:21;19.13;;;10.03;;
20150;SDS011;10236;49.638;6.830;2023-02-05T00:30:46;26.23;;;12.80;;
20150;SDS011;10236;49.638;6.830;2023-02-05T00:33:12;27.57;;;12.63;;
20150;SDS011;10236;49.638;6.830;2023-02-05T00:35:40;29.87;;;12.43;;
20150;SDS011;10236;49.638;6.830;2023-02-05T00:38:06;28.40;;;12.07;;
20150;SDS011;10236;49.638;6.830;2023-02-05T00:40:32;22.53;;;11.73;;
20150;SDS011;10236;49.638;6.830;2023-02-05T00:42:58;23.27;;;11.20;;
20150;SDS011;10236;49.638;6.830;2023-02-05T00:45:24;31.30;;;12.63;;
20150;SDS011;10236;49.638;6.830;2023-02-05T00:47:50;26.73;;;13.23;;
20150;SDS011;10236;49.638;6.830;2023-02-05T00:50:16;21.77;;;12.53;;
20150;SDS011;10236;49.638;6.830;2023-02-05T00:52:42;23.50;;;11.30;;
20150;SDS011;10236;49.638;6.830;2023-02-05T00:55:08;23.13;;;10.53;;
20150;SDS011;10236;49.638;6.830;2023-02-05T00:57:34;19.10;;;8.03;;
20150;SDS011;10236;49.638;6.830;2023-02-05T00:59:59;22.40;;;9.97;;
20150;SDS011;10236;49.638;6.830;2023-02-05T01:02:25;25.43;;;10.87;;
20150;SDS011;10236;49.638;6.830;2023-02-05T01:04:51;31.37;;;11.33;;
20150;SDS011;10236;49.638;6.830;2023-02-05T01:07:18;25.90;;;10.40;;
20150;SDS011;10236;49.638;6.830;2023-02-05T01:09:44;28.83;;;10.53;;
20150;SDS011;10236;49.638;6.830;2023-02-05T01:12:10;22.83;;;9.43;;
20150;SDS011;10236;49.638;6.830;2023-02-05T01:14:38;22.13;;;9.90;;
20150;SDS011;10236;49.638;6.830;2023-02-05T01:17:04;20.47;;;8.53;;
20150;SDS011;10236;49.638;6.830;2023-02-05T01:19:31;11.20;;;6.73;;
20150;SDS011;10236;49.638;6.830;2023-02-05T01:21:57;16.13;;;7.30;;
20150;SDS011;10236;49.638;6.830;2023-02-05T01:24:23;14.20;;;6.67;;
20150;SDS011;10236;49.638;6.830;2023-02-05T01:26:49;14.43;;;6.70;;
20150;SDS011;10236;49.638;6.830;2023-02-05T01:29:17;15.97;;;6.30;;
20150;SDS011;10236;49.638;6.830;2023-02-05T01:31:43;19.20;;;6.53;;
20150;SDS011;10236;49.638;6.830;2023-02-05T01:34:09;16.67;;;6.60;;
20150;SDS011;10236;49.638;6.830;2023-02-05T01:36:35;17.37;;;6.97;;
20150;SDS011;10236;49.638;6.830;2023-02-05T01:39:01;22.10;;;8.90;;
20150;SDS011;10236;49.638;6.830;2023-02-05T01:41:27;16.40;;;8.60;;
20150;SDS011;10236;49.638;6.830;2023-02-05T01:44:06;14.07;;;8.43;;
20150;SDS011;10236;49.638;6.830;2023-02-05T01:46:33;24.23;;;9.20;;
20150;SDS011;10236;49.638;6.830;2023-02-05T01:48:59;23.37;;;11.23;;
20150;SDS011;10236;49.638;6.830;2023-02-05T01:51:26;22.83;;;10.80;;
20150;SDS011;10236;49.638;6.830;2023-02-05T01:53:53;19.80;;;8.33;;
20150;SDS011;10236;49.638;6.830;2023-02-05T01:56:20;16.17;;;7.37;;
20150;SDS011;10236;49.638;6.830;2023-02-05T01:58:48;24.60;;;9.80;;
20150;SDS011;10236;49.638;6.830;2023-02-05T02:01:16;25.47;;;9.90;;
20150;SDS011;10236;49.638;6.830;2023-02-05T02:03:42;26.17;;;10.27;;
20150;SDS011;10236;49.638;6.830;2023-02-05T02:06:09;22.10;;;9.73;;
20150;SDS011;10236;49.638;6.830;2023-02-05T02:08:35;32.03;;;11.03;;
20150;SDS011;10236;49.638;6.830;2023-02-05T02:11:01;20.50;;;11.17;;
20150;SDS011;10236;49.638;6.830;2023-02-05T02:13:28;24.60;;;10.77;;
20150;SDS011;10236;49.638;6.830;2023-02-05T02:15:56;18.97;;;8.30;;
20150;SDS011;10236;49.638;6.830;2023-02-05T02:18:22;18.50;;;7.23;;
20150;SDS011;10236;49.638;6.830;2023-02-05T02:29:00;14.07;;;6.80;;
20150;SDS011;10236;49.638;6.830;2023-02-05T02:31:34;11.40;;;6.87;;
20150;SDS011;10236;49.638;6.830;2023-02-05T02:34:10;16.93;;;7.40;;
20150;SDS011;10236;49.638;6.830;2023-02-05T02:36:43;14.17;;;6.60;;
20150;SDS011;10236;49.638;6.830;2023-02-05T02:41:50;16.33;;;6.97;;
20150;SDS011;10236;49.638;6.830;2023-02-05T02:44:18;19.23;;;7.07;;
20150;SDS011;10236;49.638;6.830;2023-02-05T02:46:49;17.77;;;7.03;;
20150;SDS011;10236;49.638;6.830;2023-02-05T02:49:18;15.10;;;6.43;;
20150;SDS011;10236;49.638;6.830;2023-02-05T02:51:45;21.13;;;7.20;;
20150;SDS011;10236;49.638;6.830;2023-02-05T02:54:13;15.83;;;8.13;;
20150;SDS011;10236;49.638;6.830;2023-02-05T02:56:40;14.53;;;6.17;;
20150;SDS011;10236;49.638;6.830;2023-02-05T02:59:11;17.20;;;7.03;;
20150;SDS011;10236;49.638;6.830;2023-02-05T03:01:38;14.43;;;7.77;;
20150;SDS011;10236;49.638;6.830;2023-02-05T03:04:10;22.80;;;8.03;;
20150;SDS011;10236;49.638;6.830;2023-02-05T03:06:37;13.57;;;6.83;;
20150;SDS011;10236;49.638;6.830;2023-02-05T03:09:38;18.03;;;7.17;;
20150;SDS011;10236;49.638;6.830;2023-02-05T03:11:56;13.10;;;7.03;;
20150;SDS011;10236;49.638;6.830;2023-02-05T03:14:22;14.70;;;6.83;;
20150;SDS011;10236;49.638;6.830;2023-02-05T03:16:48;15.83;;;7.27;;
20150;SDS011;10236;49.638;6.830;2023-02-05T03:19:14;17.73;;;7.33;;
20150;SDS011;10236;49.638;6.830;2023-02-05T03:21:41;20.47;;;7.27;;
20150;SDS011;10236;49.638;6.830;2023-02-05T03:24:08;17.30;;;6.93;;
20150;SDS011;10236;49.638;6.830;2023-02-05T03:26:34;13.70;;;7.00;;
20150;SDS011;10236;49.638;6.830;2023-02-05T03:29:01;12.53;;;5.93;;
20150;SDS011;10236;49.638;6.830;2023-02-05T03:31:53;15.77;;;6.63;;
20150;SDS011;10236;49.638;6.830;2023-02-05T03:34:18;15.03;;;6.23;;
20150;SDS011;10236;49.638;6.830;2023-02-05T03:39:37;12.53;;;6.17;;
20150;SDS011;10236;49.638;6.830;2023-02-05T03:42:10;15.93;;;6.70;;
20150;SDS011;10236;49.638;6.830;2023-02-05T03:52:30;21.63;;;6.30;;
20150;SDS011;10236;49.638;6.830;2023-02-05T03:57:27;19.27;;;7.80;;
20150;SDS011;10236;49.638;6.830;2023-02-05T03:59:55;15.70;;;8.27;;
20150;SDS011;10236;49.638;6.830;2023-02-05T04:02:21;17.33;;;7.77;;
20150;SDS011;10236;49.638;6.830;2023-02-05T04:04:47;24.50;;;9.90;;
20150;SDS011;10236;49.638;6.830;2023-02-05T04:07:13;20.33;;;10.30;;
20150;SDS011;10236;49.638;6.830;2023-02-05T04:09:40;26.77;;;10.37;;
20150;SDS011;10236;49.638;6.830;2023-02-05T04:12:06;25.73;;;9.83;;
20150;SDS011;10236;49.638;6.830;2023-02-05T04:14:31;26.20;;;10.17;;
20150;SDS011;10236;49.638;6.830;2023-02-05T04:16:57;23.80;;;10.33;;
20150;SDS011;10236;49.638;6.830;2023-02-05T04:19:23;23.47;;;10.03;;
20150;SDS011;10236;49.638;6.830;2023-02-05T04:21:49;26.93;;;11.03;;
20150;SDS011;10236;49.638;6.830;2023-02-05T04:24:15;25.07;;;10.60;;
20150;SDS011;10236;49.638;6.830;2023-02-05T04:26:41;23.73;;;11.07;;
20150;SDS011;10236;49.638;6.830;2023-02-05T04:29:07;30.47;;;10.83;;
20150;SDS011;10236;49.638;6.830;2023-02-05T04:31:33;30.23;;;12.93;;
20150;SDS011;10236;49.638;6.830;2023-02-05T04:33:59;23.70;;;12.00;;
20150;SDS011;10236;49.638;6.830;2023-02-05T04:36:25;33.03;;;12.00;;
20150;SDS011;10236;49.638;6.830;2023-02-05T04:38:51;25.40;;;12.53;;
20150;SDS011;10236;49.638;6.830;2023-02-05T04:41:17;23.77;;;11.30;;
20150;SDS011;10236;49.638;6.830;2023-02-05T04:43:43;30.83;;;12.33;;
20150;SDS011;10236;49.638;6.830;2023-02-05T04:46:09;36.53;;;15.43;;
20150;SDS011;10236;49.638;6.830;2023-02-05T04:48:35;29.73;;;13.20;;
20150;SDS011;10236;49.638;6.830;2023-02-05T04:51:05;27.67;;;12.83;;
20150;SDS011;10236;49.638;6.830;2023-02-05T04:53:31;34.40;;;11.77;;
20150;SDS011;10236;49.638;6.830;2023-02-05T04:56:07;27.40;;;11.03;;
20150;SDS011;10236;49.638;6.830;2023-02-05T04:58:33;29.13;;;11.43;;
20150;SDS011;10236;49.638;6.830;2023-02-05T05:00:59;31.23;;;12.10;;
20150;SDS011;10236;49.638;6.830;2023-02-05T05:03:26;29.07;;;11.37;;
20150;SDS011;10236;49.638;6.830;2023-02-05T05:05:52;30.40;;;12.83;;
20150;SDS011;10236;49.638;6.830;2023-02-05T05:08:17;24.73;;;10.60;;
20150;SDS011;10236;49.638;6.830;2023-02-05T05:10:44;27.33;;;12.07;;
20150;SDS011;10236;49.638;6.830;2023-02-05T05:13:10;28.17;;;11.80;;
20150;SDS011;10236;49.638;6.830;2023-02-05T05:15:36;33.97;;;12.57;;
20150;SDS011;10236;49.638;6.830;2023-02-05T05:18:02;28.67;;;12.13;;
20150;SDS011;10236;49.638;6.830;2023-02-05T05:20:28;34.03;;;13.50;;
20150;SDS011;10236;49.638;6.830;2023-02-05T05:22:54;33.20;;;14.77;;
20150;SDS011;10236;49.638;6.830;2023-02-05T05:25:20;34.13;;;14.53;;
20150;SDS011;10236;49.638;6.830;2023-02-05T05:27:46;32.43;;;12.47;;
20150;SDS011;10236;49.638;6.830;2023-02-05T05:30:12;26.83;;;13.97;;
20150;SDS011;10236;49.638;6.830;2023-02-05T05:32:38;28.93;;;14.37;;
20150;SDS011;10236;49.638;6.830;2023-02-05T05:35:05;30.07;;;13.37;;
20150;SDS011;10236;49.638;6.830;2023-02-05T05:37:31;32.30;;;13.87;;
20150;SDS011;10236;49.638;6.830;2023-02-05T05:39:57;30.27;;;13.63;;
20150;SDS011;10236;49.638;6.830;2023-02-05T05:42:42;29.93;;;12.70;;
20150;SDS011;10236;49.638;6.830;2023-02-05T05:45:26;29.77;;;13.27;;
20150;SDS011;10236;49.638;6.830;2023-02-05T05:47:52;31.43;;;14.87;;
20150;SDS011;10236;49.638;6.830;2023-02-05T05:50:18;43.33;;;18.27;;
20150;SDS011;10236;49.638;6.830;2023-02-05T05:52:44;33.63;;;17.53;;
20150;SDS011;10236;49.638;6.830;2023-02-05T05:55:10;42.77;;;17.03;;
20150;SDS011;10236;49.638;6.830;2023-02-05T05:57:36;44.33;;;20.83;;
20150;SDS011;10236;49.638;6.830;2023-02-05T06:00:03;44.47;;;20.10;;
20150;SDS011;10236;49.638;6.830;2023-02-05T06:02:29;58.47;;;28.10;;
20150;SDS011;10236;49.638;6.830;2023-02-05T06:04:55;55.53;;;26.07;;
20150;SDS011;10236;49.638;6.830;2023-02-05T06:07:21;55.80;;;25.07;;
20150;SDS011;10236;49.638;6.830;2023-02-05T06:09:47;57.93;;;29.13;;
20150;SDS011;10236;49.638;6.830;2023-02-05T06:12:13;58.10;;;25.63;;
20150;SDS011;10236;49.638;6.830;2023-02-05T06:14:39;61.70;;;31.13;;
20150;SDS011;10236;49.638;6.830;2023-02-05T06:17:05;59.17;;;32.83;;
20150;SDS011;10236;49.638;6.830;2023-02-05T06:19:31;61.03;;;30.83;;
20150;SDS011;10236;49.638;6.830;2023-02-05T06:21:57;59.67;;;30.70;;
20150;SDS011;10236;49.638;6.830;2023-02-05T06:24:23;57.77;;;28.33;;
20150;SDS011;10236;49.638;6.830;2023-02-05T06:26:49;59.10;;;27.10;;
20150;SDS011;10236;49.638;6.830;2023-02-05T06:29:15;58.10;;;28.47;;
20150;SDS011;10236;49.638;6.830;2023-02-05T06:31:41;55.57;;;29.10;;
20150;SDS011;10236;49.638;6.830;2023-02-05T06:34:06;67.77;;;33.43;;
20150;SDS011;10236;49.638;6.830;2023-02-05T06:36:32;57.27;;;32.73;;
20150;SDS011;10236;49.638;6.830;2023-02-05T06:38:58;57.47;;;28.23;;
20150;SDS011;10236;49.638;6.830;2023-02-05T06:41:24;63.57;;;34.23;;
20150;SDS011;10236;49.638;6.830;2023-02-05T06:43:50;53.87;;;29.37;;
20150;SDS011;10236;49.638;6.830;2023-02-05T06:46:16;60.00;;;33.63;;
20150;SDS011;10236;49.638;6.830;2023-02-05T06:48:42;56.43;;;28.73;;
20150;SDS011;10236;49.638;6.830;2023-02-05T06:51:08;57.90;;;30.37;;
20150;SDS011;10236;49.638;6.830;2023-02-05T06:53:34;51.63;;;27.53;;
20150;SDS011;10236;49.638;6.830;2023-02-05T06:56:00;55.20;;;29.53;;
20150;SDS011;10236;49.638;6.830;2023-02-05T06:58:26;49.87;;;27.90;;
20150;SDS011;10236;49.638;6.830;2023-02-05T07:00:52;56.17;;;28.03;;
20150;SDS011;10236;49.638;6.830;2023-02-05T07:03:18;53.70;;;31.67;;
20150;SDS011;10236;49.638;6.830;2023-02-05T07:05:44;54.13;;;30.87;;
20150;SDS011;10236;49.638;6.830;2023-02-05T07:10:45;49.13;;;27.73;;
20150;SDS011;10236;49.638;6.830;2023-02-05T07:13:14;46.87;;;25.33;;
20150;SDS011;10236;49.638;6.830;2023-02-05T07:15:43;45.10;;;26.17;;
20150;SDS011;10236;49.638;6.830;2023-02-05T07:18:14;46.37;;;26.40;;
20150;SDS011;10236;49.638;6.830;2023-02-05T07:20:40;48.97;;;27.93;;
20150;SDS011;10236;49.638;6.830;2023-02-05T07:23:11;56.93;;;29.73;;
20150;SDS011;10236;49.638;6.830;2023-02-05T07:25:40;49.30;;;27.33;;
20150;SDS011;10236;49.638;6.830;2023-02-05T07:28:31;53.93;;;30.73;;
20150;SDS011;10236;49.638;6.830;2023-02-05T07:31:02;50.50;;;30.10;;
20150;SDS011;10236;49.638;6.830;2023-02-05T07:33:33;49.00;;;27.50;;
20150;SDS011;10236;49.638;6.830;2023-02-05T07:36:04;61.73;;;32.97;;
20150;SDS011;10236;49.638;6.830;2023-02-05T07:38:34;54.97;;;29.83;;
20150;SDS011;10236;49.638;6.830;2023-02-05T07:41:11;46.83;;;27.70;;
20150;SDS011;10236;49.638;6.830;2023-02-05T07:44:07;45.93;;;26.33;;
20150;SDS011;10236;49.638;6.830;2023-02-05T07:46:33;51.63;;;29.17;;
20150;SDS011;10236;49.638;6.830;2023-02-05T07:49:05;46.70;;;27.70;;
20150;SDS011;10236;49.638;6.830;2023-02-05T07:51:31;44.70;;;24.97;;
20150;SDS011;10236;49.638;6.830;2023-02-05T07:54:20;38.97;;;24.00;;
20150;SDS011;10236;49.638;6.830;2023-02-05T07:56:56;42.27;;;27.33;;
20150;SDS011;10236;49.638;6.830;2023-02-05T07:59:32;37.07;;;23.40;;
20150;SDS011;10236;49.638;6.830;2023-02-05T08:02:07;37.87;;;21.70;;
20150;SDS011;10236;49.638;6.830;2023-02-05T08:07:16;37.37;;;21.17;;
20150;SDS011;10236;49.638;6.830;2023-02-05T08:09:51;59.30;;;29.67;;
20150;SDS011;10236;49.638;6.830;2023-02-05T08:12:19;36.73;;;21.83;;
20150;SDS011;10236;49.638;6.830;2023-02-05T08:14:51;50.37;;;26.10;;
20150;SDS011;10236;49.638;6.830;2023-02-05T08:17:17;40.77;;;24.93;;
20150;SDS011;10236;49.638;6.830;2023-02-05T08:19:52;166.27;;;70.70;;
20150;SDS011;10236;49.638;6.830;2023-02-05T08:22:35;33.17;;;20.90;;
20150;SDS011;10236;49.638;6.830;2023-02-05T08:25:08;399.53;;;163.20;;
20150;SDS011;10236;49.638;6.830;2023-02-05T08:27:54;46.10;;;24.03;;
20150;SDS011;10236;49.638;6.830;2023-02-05T08:30:23;28.53;;;17.13;;
20150;SDS011;10236;49.638;6.830;2023-02-05T08:32:52;29.50;;;17.50;;
20150;SDS011;10236;49.638;6.830;2023-02-05T08:35:21;25.80;;;16.10;;
20150;SDS011;10236;49.638;6.830;2023-02-05T08:37:47;25.40;;;14.83;;
20150;SDS011;10236;49.638;6.830;2023-02-05T08:40:13;23.83;;;15.17;;
20150;SDS011;10236;49.638;6.830;2023-02-05T08:42:45;44.90;;;28.23;;
20150;SDS011;10236;49.638;6.830;2023-02-05T08:45:16;52.57;;;30.67;;
20150;SDS011;10236;49.638;6.830;2023-02-05T08:47:55;25.80;;;17.70;;
20150;SDS011;10236;49.638;6.830;2023-02-05T08:50:30;23.50;;;16.43;;
20150;SDS011;10236;49.638;6.830;2023-02-05T08:53:01;24.70;;;16.13;;
20150;SDS011;10236;49.638;6.830;2023-02-05T08:55:31;23.13;;;16.13;;
20150;SDS011;10236;49.638;6.830;2023-02-05T08:57:59;26.47;;;17.67;;
20150;SDS011;10236;49.638;6.830;2023-02-05T09:00:28;29.10;;;18.77;;
20150;SDS011;10236;49.638;6.830;2023-02-05T09:03:04;28.47;;;18.50;;
20150;SDS011;10236;49.638;6.830;2023-02-05T09:05:30;26.77;;;18.17;;
20150;SDS011;10236;49.638;6.830;2023-02-05T09:08:14;31.37;;;19.00;;
20150;SDS011;10236;49.638;6.830;2023-02-05T09:10:42;26.77;;;17.33;;
20150;SDS011;10236;49.638;6.830;2023-02-05T09:13:10;27.70;;;17.47;;
20150;SDS011;10236;49.638;6.830;2023-02-05T09:15:48;29.17;;;18.77;;
20150;SDS011;10236;49.638;6.830;2023-02-05T09:18:17;28.67;;;18.97;;
20150;SDS011;10236;49.638;6.830;2023-02-05T09:20:58;26.57;;;16.63;;
20150;SDS011;10236;49.638;6.830;2023-02-05T09:23:32;28.77;;;17.60;;
20150;SDS011;10236;49.638;6.830;2023-02-05T09:26:01;28.20;;;16.23;;
20150;SDS011;10236;49.638;6.830;2023-02-05T09:28:34;33.43;;;22.00;;
20150;SDS011;10236;49.638;6.830;2023-02-05T09:31:18;32.20;;;20.07;;
20150;SDS011;10236;49.638;6.830;2023-02-05T09:33:54;22.60;;;15.33;;
20150;SDS011;10236;49.638;6.830;2023-02-05T09:36:21;24.33;;;15.30;;
20150;SDS011;10236;49.638;6.830;2023-02-05T09:38:56;23.77;;;14.70;;
20150;SDS011;10236;49.638;6.830;2023-02-05T09:43:58;24.50;;;16.20;;
20150;SDS011;10236;49.638;6.830;2023-02-05T09:54:28;27.13;;;13.67;;
20150;SDS011;10236;49.638;6.830;2023-02-05T09:57:02;27.60;;;16.20;;
20150;SDS011;10236;49.638;6.830;2023-02-05T09:59:29;27.13;;;16.40;;
20150;SDS011;10236;49.638;6.830;2023-02-05T10:02:17;30.93;;;20.37;;
20150;SDS011;10236;49.638;6.830;2023-02-05T10:04:46;30.43;;;17.50;;
20150;SDS011;10236;49.638;6.830;2023-02-05T10:15:55;24.67;;;15.67;;
20150;SDS011;10236;49.638;6.830;2023-02-05T10:26:24;24.43;;;16.27;;
20150;SDS011;10236;49.638;6.830;2023-02-05T10:34:41;20.80;;;14.43;;
20150;SDS011;10236;49.638;6.830;2023-02-05T10:37:12;23.50;;;14.57;;
20150;SDS011;10236;49.638;6.830;2023-02-05T10:40:00;21.77;;;14.00;;
20150;SDS011;10236;49.638;6.830;2023-02-05T10:42:33;21.73;;;15.47;;
20150;SDS011;10236;49.638;6.830;2023-02-05T10:53:46;15.63;;;10.90;;
20150;SDS011;10236;49.638;6.830;2023-02-05T10:56:21;19.00;;;13.80;;
20150;SDS011;10236;49.638;6.830;2023-02-05T10:58:57;12.03;;;10.93;;
20150;SDS011;10236;49.638;6.830;2023-02-05T11:01:31;12.50;;;9.07;;
20150;SDS011;10236;49.638;6.830;2023-02-05T11:04:13;12.00;;;8.30;;
20150;SDS011;10236;49.638;6.830;2023-02-05T11:09:31;7.87;;;6.10;;
20150;SDS011;10236;49.638;6.830;2023-02-05T11:12:28;4.83;;;4.23;;
20150;SDS011;10236;49.638;6.830;2023-02-05T11:14:55;6.37;;;3.63;;
20150;SDS011;10236;49.638;6.830;2023-02-05T11:17:25;4.17;;;3.07;;
20150;SDS011;10236;49.638;6.830;2023-02-05T11:22:44;2.30;;;1.97;;
20150;SDS011;10236;49.638;6.830;2023-02-05T11:25:21;3.37;;;1.63;;
20150;SDS011;10236;49.638;6.830;2023-02-05T11:27:54;1.53;;;1.23;;
20150;SDS011;10236;49.638;6.830;2023-02-05T11:36:04;1.67;;;1.17;;
20150;SDS011;10236;49.638;6.830;2023-02-05T11:41:12;1.73;;;0.73;;
20150;SDS011;10236;49.638;6.830;2023-02-05T11:43:48;1.63;;;0.87;;
20150;SDS011;10236;49.638;6.830;2023-02-05T11:46:32;1.80;;;0.80;;
20150;SDS011;10236;49.638;6.830;2023-02-05T11:49:13;1.00;;;0.60;;
20150;SDS011;10236;49.638;6.830;2023-02-05T11:51:45;3.80;;;2.87;;
20150;SDS011;10236;49.638;6.830;2023-02-05T11:54:28;1.27;;;0.80;;
20150;SDS011;10236;49.638;6.830;2023-02-05T12:07:46;1.00;;;0.50;;
20150;SDS011;10236;49.638;6.830;2023-02-05T12:10:17;0.67;;;0.30;;
20150;SDS011;10236;49.638;6.830;2023-02-05T12:15:47;1.20;;;0.60;;
20150;SDS011;10236;49.638;6.830;2023-02-05T12:32:51;0.93;;;0.60;;
20150;SDS011;10236;49.638;6.830;2023-02-05T12:35:28;0.40;;;0.40;;
20150;SDS011;10236;49.638;6.830;2023-02-05T12:38:05;0.30;;;0.30;;
20150;SDS011;10236;49.638;6.830;2023-02-05T12:40:48;0.50;;;0.30;;
20150;SDS011;10236;49.638;6.830;2023-02-05T12:45:59;0.90;;;0.50;;
20150;SDS011;10236;49.638;6.830;2023-02-05T12:48:47;0.30;;;0.30;;
20150;SDS011;10236;49.638;6.830;2023-02-05T12:51:21;0.60;;;0.30;;
20150;SDS011;10236;49.638;6.830;2023-02-05T13:01:54;2.30;;;0.70;;
20150;SDS011;10236;49.638;6.830;2023-02-05T13:04:33;3.50;;;0.63;;
20150;SDS011;10236;49.638;6.830;2023-02-05T13:07:11;1.70;;;0.40;;
20150;SDS011;10236;49.638;6.830;2023-02-05T13:09:43;0.53;;;0.30;;
20150;SDS011;10236;49.638;6.830;2023-02-05T13:12:11;0.80;;;0.30;;
20150;SDS011;10236;49.638;6.830;2023-02-05T13:14:43;0.60;;;0.43;;
20150;SDS011;10236;49.638;6.830;2023-02-05T13:17:14;0.80;;;0.30;;
20150;SDS011;10236;49.638;6.830;2023-02-05T13:19:47;0.50;;;0.47;;
20150;SDS011;10236;49.638;6.830;2023-02-05T13:25:27;0.50;;;0.30;;
20150;SDS011;10236;49.638;6.830;2023-02-05T13:31:15;0.63;;;0.40;;
20150;SDS011;10236;49.638;6.830;2023-02-05T13:33:42;0.80;;;0.30;;
20150;SDS011;10236;49.638;6.830;2023-02-05T13:41:19;3.37;;;1.70;;
20150;SDS011;10236;49.638;6.830;2023-02-05T13:44:09;0.30;;;0.30;;
20150;SDS011;10236;49.638;6.830;2023-02-05T13:46:41;0.90;;;0.40;;
20150;SDS011;10236;49.638;6.830;2023-02-05T13:49:28;0.93;;;0.40;;
20150;SDS011;10236;49.638;6.830;2023-02-05T13:54:42;1.97;;;0.30;;
20150;SDS011;10236;49.638;6.830;2023-02-05T13:59:56;1.30;;;0.30;;
20150;SDS011;10236;49.638;6.830;2023-02-05T14:02:30;0.57;;;0.30;;
20150;SDS011;10236;49.638;6.830;2023-02-05T14:04:57;1.93;;;0.40;;
20150;SDS011;10236;49.638;6.830;2023-02-05T14:07:32;0.80;;;0.30;;
20150;SDS011;10236;49.638;6.830;2023-02-05T14:09:59;0.87;;;0.40;;
20150;SDS011;10236;49.638;6.830;2023-02-05T14:12:35;4.00;;;0.43;;
20150;SDS011;10236;49.638;6.830;2023-02-05T14:22:45;2.33;;;0.50;;
20150;SDS011;10236;49.638;6.830;2023-02-05T14:27:55;0.53;;;0.40;;
20150;SDS011;10236;49.638;6.830;2023-02-05T14:35:34;2.73;;;1.43;;
20150;SDS011;10236;49.638;6.830;2023-02-05T14:38:50;3.23;;;1.30;;
20150;SDS011;10236;49.638;6.830;2023-02-05T14:41:02;2.00;;;1.27;;
20150;SDS011;10236;49.638;6.830;2023-02-05T14:43:30;1.30;;;0.60;;
20150;SDS011;10236;49.638;6.830;2023-02-05T14:45:57;1.50;;;0.47;;
20150;SDS011;10236;49.638;6.830;2023-02-05T14:48:43;1.50;;;0.67;;
20150;SDS011;10236;49.638;6.830;2023-02-05T14:51:30;0.97;;;0.60;;
20150;SDS011;10236;49.638;6.830;2023-02-05T14:54:16;1.23;;;0.60;;
20150;SDS011;10236;49.638;6.830;2023-02-05T14:56:44;1.93;;;1.20;;
20150;SDS011;10236;49.638;6.830;2023-02-05T14:59:18;3.07;;;1.77;;
20150;SDS011;10236;49.638;6.830;2023-02-05T15:01:45;1.47;;;0.80;;
20150;SDS011;10236;49.638;6.830;2023-02-05T15:04:18;2.07;;;1.20;;
20150;SDS011;10236;49.638;6.830;2023-02-05T15:06:46;0.97;;;0.50;;
20150;SDS011;10236;49.638;6.830;2023-02-05T15:09:16;1.23;;;0.60;;
20150;SDS011;10236;49.638;6.830;2023-02-05T15:16:46;4.00;;;0.93;;
20150;SDS011;10236;49.638;6.830;2023-02-05T15:19:12;3.47;;;1.00;;
20150;SDS011;10236;49.638;6.830;2023-02-05T15:21:50;2.67;;;1.20;;
20150;SDS011;10236;49.638;6.830;2023-02-05T15:24:21;2.17;;;0.90;;
20150;SDS011;10236;49.638;6.830;2023-02-05T15:27:00;1.47;;;0.80;;
20150;SDS011;10236;49.638;6.830;2023-02-05T15:32:01;3.10;;;0.80;;
20150;SDS011;10236;49.638;6.830;2023-02-05T15:34:37;1.77;;;0.90;;
20150;SDS011;10236;49.638;6.830;2023-02-05T15:39:45;1.40;;;0.80;;
20150;SDS011;10236;49.638;6.830;2023-02-05T15:42:16;4.37;;;1.23;;
20150;SDS011;10236;49.638;6.830;2023-02-05T15:44:43;4.57;;;2.70;;
20150;SDS011;10236;49.638;6.830;2023-02-05T15:47:10;4.03;;;1.40;;
20150;SDS011;10236;49.638;6.830;2023-02-05T15:49:45;2.30;;;1.30;;
20150;SDS011;10236;49.638;6.830;2023-02-05T15:52:15;3.07;;;1.40;;
20150;SDS011;10236;49.638;6.830;2023-02-05T15:54:42;3.77;;;1.10;;
20150;SDS011;10236;49.638;6.830;2023-02-05T15:57:11;1.60;;;1.00;;
20150;SDS011;10236;49.638;6.830;2023-02-05T15:59:41;4.30;;;1.07;;
20150;SDS011;10236;49.638;6.830;2023-02-05T16:02:13;3.53;;;1.00;;
20150;SDS011;10236;49.638;6.830;2023-02-05T16:04:42;2.90;;;1.50;;
20150;SDS011;10236;49.638;6.830;2023-02-05T16:07:42;2.70;;;0.90;;
20150;SDS011;10236;49.638;6.830;2023-02-05T16:10:01;2.10;;;1.03;;
20150;SDS011;10236;49.638;6.830;2023-02-05T16:12:38;4.00;;;1.07;;
20150;SDS011;10236;49.638;6.830;2023-02-05T16:15:06;4.73;;;2.23;;
20150;SDS011;10236;49.638;6.830;2023-02-05T16:17:34;5.33;;;1.40;;
20150;SDS011;10236;49.638;6.830;2023-02-05T16:20:11;3.33;;;1.70;;
20150;SDS011;10236;49.638;6.830;2023-02-05T16:22:44;11.97;;;5.93;;
20150;SDS011;10236;49.638;6.830;2023-02-05T16:27:56;9.27;;;5.77;;
20150;SDS011;10236;49.638;6.830;2023-02-05T16:30:31;4.50;;;3.03;;
20150;SDS011;10236;49.638;6.830;2023-02-05T16:32:59;10.03;;;5.50;;
20150;SDS011;10236;49.638;6.830;2023-02-05T16:35:32;5.50;;;2.73;;
20150;SDS011;10236;49.638;6.830;2023-02-05T16:37:59;4.10;;;3.13;;
20150;SDS011;10236;49.638;6.830;2023-02-05T16:40:28;4.23;;;3.37;;
20150;SDS011;10236;49.638;6.830;2023-02-05T16:42:55;2.40;;;1.00;;
20150;SDS011;10236;49.638;6.830;2023-02-05T16:45:22;4.00;;;2.47;;
20150;SDS011;10236;49.638;6.830;2023-02-05T16:53:02;5.10;;;3.17;;
20150;SDS011;10236;49.638;6.830;2023-02-05T16:55:41;3.73;;;1.97;;
20150;SDS011;10236;49.638;6.830;2023-02-05T16:58:10;2.07;;;1.87;;
20150;SDS011;10236;49.638;6.830;2023-02-05T17:00:39;1.97;;;1.70;;
20150;SDS011;10236;49.638;6.830;2023-02-05T17:03:17;3.07;;;1.80;;
20150;SDS011;10236;49.638;6.830;2023-02-05T17:05:44;2.43;;;2.20;;
20150;SDS011;10236;49.638;6.830;2023-02-05T17:08:16;3.83;;;2.43;;
20150;SDS011;10236;49.638;6.830;2023-02-05T17:10:53;2.10;;;1.90;;
20150;SDS011;10236;49.638;6.830;2023-02-05T17:13:24;3.20;;;2.13;;
20150;SDS011;10236;49.638;6.830;2023-02-05T17:15:50;5.03;;;2.50;;
20150;SDS011;10236;49.638;6.830;2023-02-05T17:18:21;3.43;;;2.27;;
20150;SDS011;10236;49.638;6.830;2023-02-05T17:20:48;5.50;;;4.00;;
20150;SDS011;10236;49.638;6.830;2023-02-05T17:23:14;3.17;;;2.37;;
20150;SDS011;10236;49.638;6.830;2023-02-05T17:28:10;2.83;;;2.03;;
20150;SDS011;10236;49.638;6.830;2023-02-05T17:30:39;2.83;;;2.03;;
20150;SDS011;10236;49.638;6.830;2023-02-05T17:33:05;3.10;;;2.67;;
20150;SDS011;10236;49.638;6.830;2023-02-05T17:35:33;2.53;;;1.97;;
20150;SDS011;10236;49.638;6.830;2023-02-05T17:37:59;3.87;;;2.60;;
20150;SDS011;10236;49.638;6.830;2023-02-05T17:40:25;2.60;;;2.40;;
20150;SDS011;10236;49.638;6.830;2023-02-05T17:42:51;3.30;;;2.63;;
20150;SDS011;10236;49.638;6.830;2023-02-05T17:45:18;4.93;;;2.50;;
20150;SDS011;10236;49.638;6.830;2023-02-05T17:47:44;3.00;;;1.97;;